Big Bear City, CA

5:30 AM PST on February 19, 2017 (GMT -0800)
Big Bear City

Weather History for KL35 - October, 2014

Change the Weather History Date:

Tuesday, October 28, 2014

  Actual Average (KBUO) Record (KBUO)
Temperature  
Mean Temperature 43 °F -  
Max Temperature 60 °F 71 °F 75 °F (1998)
Min Temperature 26 °F 47 °F 37 °F (1996)
Degree Days  
Heating Degree Days 22    
Moisture  
Dew Point 22 °F    
Average Humidity 50    
Maximum Humidity 80    
Minimum Humidity 22    
Precipitation  
Precipitation 0.00 in - - ()
Sea Level Pressure  
Sea Level Pressure 30.24 in    
Wind  
Wind Speed 2 mph (ENE)    
Max Wind Speed 12 mph    
Max Gust Speed 16 mph    
Visibility 10 miles    
Events      
Averages and records for this station are not official NWS values.
T = Trace of Precipitation, MM = Missing Value Source: NWS Daily Summary

Daily Weather History Graph

Daily Weather History Graph

Search for Another Location

Airport or City:

Trip Planner

Search our weather history database for the weather conditions in past years. The results will help you decide how hot, cold, wet, or windy it might be!

Date:

Astronomy

Oct. 28, 2014 Rise Set
Actual Time 7:03 AM PDT 5:58 PM PDT
Civil Twilight 6:38 AM PDT 6:23 PM PDT
Nautical Twilight 6:08 AM PDT 6:53 PM PDT
Astronomical Twilight 5:39 AM PDT 7:22 PM PDT
Moon 11:32 AM PDT (10/28) 10:12 PM PDT (10/28)
Length of Visible Light 11h 45m
Length of Day
10h 54m
Waxing Crescent, 25% of the Moon is Illuminated
Oct 28
Waxing Crescent
Oct 30
First Quarter
Nov 6
Full
Nov 14
Last Quarter
Nov 22
New

Hourly Weather History & Observations

Time (PDT) Temp. Windchill Dew Point Humidity Pressure Visibility Wind Dir Wind Speed Gust Speed Precip Events Conditions
12:15 AM 32.0 °F - 23.0 °F 69% 30.19 in 10.0 mi Calm Calm - N/A   Clear
12:35 AM 30.2 °F - 23.0 °F 75% 30.19 in 10.0 mi Calm Calm - N/A   Clear
12:55 AM 30.2 °F - 23.0 °F 75% 30.19 in 10.0 mi Calm Calm - N/A   Clear
1:15 AM 30.2 °F - 23.0 °F 75% 30.19 in 10.0 mi Calm Calm - N/A   Clear
1:35 AM 30.2 °F - 23.0 °F 75% 30.19 in 10.0 mi Calm Calm - N/A   Clear
1:55 AM 30.2 °F - 23.0 °F 75% 30.19 in 10.0 mi Calm Calm - N/A   Clear
2:15 AM 28.4 °F - 23.0 °F 80% 30.20 in 10.0 mi Calm Calm - N/A   Clear
2:35 AM 28.4 °F - 21.2 °F 74% 30.19 in 10.0 mi Calm Calm - N/A   Clear
2:55 AM 28.4 °F - 23.0 °F 80% 30.19 in 10.0 mi Calm Calm - N/A   Clear
3:15 AM 28.4 °F - 21.2 °F 74% 30.19 in 10.0 mi Calm Calm - N/A   Clear
3:35 AM 28.4 °F - 21.2 °F 74% 30.19 in 10.0 mi Calm Calm - N/A   Clear
3:55 AM 28.4 °F - 19.4 °F 69% 30.19 in 10.0 mi Calm Calm - N/A   Clear
4:15 AM 28.4 °F - 19.4 °F 69% 30.19 in 10.0 mi Calm Calm - N/A   Clear
4:35 AM 28.4 °F - 19.4 °F 69% 30.19 in 10.0 mi Calm Calm - N/A   Clear
4:55 AM 26.6 °F - 19.4 °F 74% 30.20 in 10.0 mi Calm Calm - N/A   Clear
5:15 AM 28.4 °F - 19.4 °F 69% 30.20 in 10.0 mi Calm Calm - N/A   Clear
5:35 AM 26.6 °F - 19.4 °F 74% 30.20 in 10.0 mi Calm Calm - N/A   Clear
5:55 AM 26.6 °F - 19.4 °F 74% 30.21 in 10.0 mi Calm Calm - N/A   Clear
6:15 AM 26.6 °F - 19.4 °F 74% 30.21 in 10.0 mi Calm Calm - N/A   Clear
6:35 AM 26.6 °F - 19.4 °F 74% 30.22 in 10.0 mi Calm Calm - N/A   Clear
6:55 AM 26.6 °F - 19.4 °F 74% 30.22 in 10.0 mi Calm Calm - N/A   Clear
7:15 AM 26.6 °F - 21.2 °F 80% 30.23 in 7.0 mi Calm Calm - N/A   Clear
7:35 AM 26.6 °F - 19.4 °F 74% 30.23 in 10.0 mi Calm Calm - N/A   Clear
7:55 AM 30.2 °F - 21.2 °F 69% 30.24 in 10.0 mi Calm Calm - N/A   Clear
8:15 AM 32.0 °F - 21.2 °F 64% 30.24 in 10.0 mi Calm Calm - N/A   Clear
8:35 AM 35.6 °F - 24.8 °F 65% 30.25 in 10.0 mi Calm Calm - N/A   Clear
8:55 AM 39.2 °F 37.0 °F 26.6 °F 61% 30.25 in 10.0 mi West 3.5 mph - N/A   Clear
9:15 AM 44.6 °F 43.1 °F 26.6 °F 49% 30.25 in 10.0 mi West 3.5 mph - N/A   Clear
9:35 AM 48.2 °F - 26.6 °F 43% 30.25 in 10.0 mi Calm Calm - N/A   Clear
9:55 AM 50.0 °F - 23.0 °F 35% 30.25 in 10.0 mi Calm Calm - N/A   Clear
10:15 AM 55.4 °F - 23.0 °F 29% 30.25 in 10.0 mi ENE 5.8 mph - N/A   Clear
10:35 AM 59.0 °F - 21.2 °F 23% 30.25 in 10.0 mi East 5.8 mph - N/A   Clear
10:55 AM 59.0 °F - 19.4 °F 22% 30.25 in 10.0 mi NE 5.8 mph - N/A   Clear
11:15 AM 59.0 °F - 19.4 °F 22% 30.25 in 10.0 mi East 4.6 mph - N/A   Clear
11:35 AM 60.8 °F - 23.0 °F 23% 30.25 in 10.0 mi ENE 8.1 mph - N/A   Clear
11:55 AM 60.8 °F - 23.0 °F 23% 30.24 in 10.0 mi East 11.5 mph - N/A   Clear
12:15 PM 59.0 °F - 23.0 °F 25% 30.24 in 10.0 mi ENE 10.4 mph - N/A   Clear
12:35 PM 60.8 °F - 24.8 °F 25% 30.23 in 10.0 mi ENE 11.5 mph 16.1 mph N/A   Clear
12:55 PM 60.8 °F - 24.8 °F 25% 30.23 in 10.0 mi ENE 9.2 mph - N/A   Clear
1:15 PM 60.8 °F - 24.8 °F 25% 30.23 in 10.0 mi ENE 10.4 mph - N/A   Clear
1:35 PM 60.8 °F - 24.8 °F 25% 30.23 in 10.0 mi ENE 11.5 mph - N/A   Clear
1:55 PM 60.8 °F - 24.8 °F 25% 30.22 in 10.0 mi ENE 9.2 mph - N/A   Clear
2:15 PM 59.0 °F - 24.8 °F 27% 30.22 in 10.0 mi East 11.5 mph - N/A   Clear
2:35 PM 60.8 °F - 23.0 °F 23% 30.23 in 10.0 mi ENE 6.9 mph - N/A   Clear
2:55 PM 59.0 °F - 23.0 °F 25% 30.23 in 10.0 mi East 10.4 mph - N/A   Clear
3:15 PM 60.8 °F - 23.0 °F 23% 30.23 in 10.0 mi East 8.1 mph - N/A   Clear
3:35 PM 59.0 °F - 23.0 °F 25% 30.23 in 10.0 mi East 5.8 mph - N/A   Clear
3:55 PM 59.0 °F - 23.0 °F 25% 30.23 in 10.0 mi East 4.6 mph - N/A   Clear
4:15 PM 59.0 °F - 23.0 °F 25% 30.23 in 10.0 mi NE 6.9 mph - N/A   Clear
4:35 PM 57.2 °F - 23.0 °F 27% 30.23 in 10.0 mi ENE 6.9 mph - N/A   Clear
4:55 PM 57.2 °F - 23.0 °F 27% 30.24 in 10.0 mi East 4.6 mph - N/A   Clear
5:15 PM 55.4 °F - 23.0 °F 29% 30.24 in 10.0 mi ENE 6.9 mph - N/A   Clear
5:35 PM 55.4 °F - 23.0 °F 29% 30.24 in 10.0 mi ESE 3.5 mph - N/A   Clear
5:55 PM 53.6 °F - 23.0 °F 30% 30.24 in 10.0 mi Calm Calm - N/A   Clear
6:15 PM 50.0 °F - 23.0 °F 35% 30.25 in 10.0 mi Calm Calm - N/A   Clear
6:35 PM 48.2 °F - 23.0 °F 37% 30.26 in 10.0 mi Calm Calm - N/A   Clear
6:55 PM 44.6 °F - 21.2 °F 39% 30.27 in 10.0 mi Calm Calm - N/A   Clear
7:15 PM 42.8 °F - 21.2 °F 42% 30.27 in 10.0 mi Calm Calm - N/A   Clear
7:35 PM 42.8 °F - 19.4 °F 39% 30.28 in 10.0 mi Calm Calm - N/A   Clear
7:55 PM 41.0 °F - 19.4 °F 42% 30.28 in 10.0 mi Calm Calm - N/A   Clear
8:15 PM 39.2 °F - 19.4 °F 45% 30.28 in 7.0 mi Calm Calm - N/A   Clear
8:35 PM 37.4 °F - 19.4 °F 48% 30.29 in 10.0 mi Calm Calm - N/A   Clear
8:55 PM 35.6 °F - 19.4 °F 52% 30.30 in 10.0 mi Calm Calm - N/A   Clear
9:15 PM 35.6 °F - 19.4 °F 52% 30.30 in 10.0 mi Calm Calm - N/A   Clear
9:35 PM 33.8 °F - 19.4 °F 56% 30.31 in 10.0 mi Calm Calm - N/A   Clear
9:55 PM 33.8 °F - 19.4 °F 56% 30.31 in 10.0 mi Calm Calm - N/A   Clear
10:15 PM 33.8 °F - 21.2 °F 60% 30.31 in 10.0 mi Calm Calm - N/A   Clear
10:35 PM 33.8 °F - 21.2 °F 60% 30.31 in 10.0 mi Calm Calm - N/A   Clear
10:55 PM 32.0 °F - 21.2 °F 64% 30.31 in 10.0 mi Calm Calm - N/A   Clear
11:15 PM 32.0 °F - 21.2 °F 64% 30.31 in 10.0 mi Calm Calm - N/A   Clear
11:35 PM 32.0 °F - 21.2 °F 64% 30.31 in 10.0 mi Calm Calm - N/A   Clear
11:55 PM 32.0 °F - 21.2 °F 64% 30.31 in 10.0 mi Calm Calm - N/A   Clear